Time;durP1;ratioP1;P1;durP2;ratioP2;P2;SDS_P1;SDS_P2;PMS_P1;PMS_P2;Temp;Humidity;BMP_temperature;BMP_pressure;BME280_temperature;BME280_humidity;BME280_pressure;Samples;Min_cycle;Max_cycle;Signal;HPM_P1;HPM_P2
2023/11/06 00:01:20;;;;;;;8.27;1.37;;;9.40;99.90;;;;;;4913848;28;20192;-67
2023/11/06 00:03:46;;;;;;;6.43;0.97;;;9.40;99.90;;;;;;4913328;28;20207;-66
2023/11/06 00:06:11;;;;;;;5.90;0.90;;;9.40;99.90;;;;;;4913584;28;20243;-65
2023/11/06 00:08:37;;;;;;;4.07;1.20;;;9.40;99.90;;;;;;4913774;28;20188;-67
2023/11/06 00:11:03;;;;;;;3.07;0.90;;;9.40;99.90;;;;;;4912301;28;20212;-66
2023/11/06 00:13:29;;;;;;;1.57;0.60;;;9.40;99.90;;;;;;4913498;28;20202;-67
2023/11/06 00:15:54;;;;;;;3.57;0.90;;;9.40;99.90;;;;;;4912633;28;20192;-66
2023/11/06 00:18:20;;;;;;;2.33;1.00;;;9.40;99.90;;;;;;4912451;28;20192;-66
2023/11/06 00:20:45;;;;;;;4.30;0.80;;;9.50;99.90;;;;;;4913402;28;20219;-67
2023/11/06 00:23:11;;;;;;;4.87;1.00;;;9.50;99.90;;;;;;4913239;28;20184;-66
2023/11/06 00:25:37;;;;;;;4.00;1.03;;;9.50;99.90;;;;;;4912891;28;20440;-67
2023/11/06 00:28:03;;;;;;;4.87;1.10;;;9.50;99.90;;;;;;4913440;28;20208;-68
2023/11/06 00:30:29;;;;;;;7.33;1.57;;;9.50;99.90;;;;;;4913344;28;20330;-67
2023/11/06 00:32:54;;;;;;;2.27;0.90;;;9.50;99.90;;;;;;4913285;28;20290;-66
2023/11/06 00:35:20;;;;;;;2.37;0.87;;;9.60;99.90;;;;;;4912713;28;20191;-67
2023/11/06 00:37:45;;;;;;;3.60;1.07;;;9.50;99.90;;;;;;4911969;28;20242;-66
2023/11/06 00:40:11;;;;;;;7.03;1.33;;;9.50;99.90;;;;;;4913130;28;20354;-66
2023/11/06 00:42:37;;;;;;;7.97;1.57;;;9.60;99.90;;;;;;4913173;28;20195;-67
2023/11/06 00:45:04;;;;;;;6.60;1.50;;;9.50;99.90;;;;;;4912391;28;20214;-67
2023/11/06 00:47:29;;;;;;;7.80;1.30;;;9.50;99.90;;;;;;4913054;28;20180;-67
2023/11/06 00:49:55;;;;;;;6.33;1.40;;;9.50;99.90;;;;;;4912938;28;20238;-67
2023/11/06 00:52:21;;;;;;;3.47;1.03;;;9.60;99.90;;;;;;4913133;28;20268;-67
2023/11/06 00:54:47;;;;;;;3.87;1.00;;;9.60;99.90;;;;;;4912431;28;20231;-67
2023/11/06 00:57:13;;;;;;;6.30;1.40;;;9.60;99.90;;;;;;4913029;28;20200;-66
2023/11/06 00:59:39;;;;;;;5.90;1.07;;;9.70;99.90;;;;;;4912764;28;20204;-68
2023/11/06 01:02:05;;;;;;;8.77;1.43;;;9.70;99.90;;;;;;4912928;28;20187;-67
2023/11/06 01:04:30;;;;;;;12.90;1.80;;;9.70;99.90;;;;;;4912299;28;20188;-66
2023/11/06 01:06:57;;;;;;;7.53;1.30;;;9.70;99.90;;;;;;4911974;28;20781;-67
2023/11/06 01:09:24;;;;;;;5.13;1.00;;;9.80;99.90;;;;;;4912072;28;20574;-66
2023/11/06 01:11:49;;;;;;;4.30;1.20;;;9.70;99.90;;;;;;4913037;28;20274;-66
2023/11/06 01:14:18;;;;;;;5.50;1.27;;;9.80;99.90;;;;;;4912243;28;20509;-66
2023/11/06 01:16:43;;;;;;;4.87;1.20;;;9.80;99.90;;;;;;4912904;28;20299;-67
2023/11/06 01:19:09;;;;;;;4.97;1.00;;;9.80;99.90;;;;;;4912581;28;20302;-67
2023/11/06 01:21:34;;;;;;;5.43;1.43;;;9.80;99.90;;;;;;4912564;28;20601;-65
2023/11/06 01:24:00;;;;;;;12.93;1.20;;;9.80;99.90;;;;;;4911768;28;20242;-67
2023/11/06 01:26:26;;;;;;;5.67;0.83;;;9.80;99.90;;;;;;4912440;28;20303;-67
2023/11/06 01:28:51;;;;;;;4.53;1.10;;;9.80;99.90;;;;;;4912460;28;20268;-67
2023/11/06 01:31:17;;;;;;;5.97;1.30;;;9.80;99.90;;;;;;4912349;28;20267;-67
2023/11/06 01:33:43;;;;;;;5.03;1.20;;;9.70;99.90;;;;;;4911814;28;20191;-66
2023/11/06 01:36:09;;;;;;;3.70;0.87;;;9.70;99.90;;;;;;4912386;28;20242;-66
2023/11/06 01:38:36;;;;;;;7.70;1.50;;;9.70;99.90;;;;;;4912425;28;20692;-67
2023/11/06 01:41:03;;;;;;;4.40;1.07;;;9.60;99.90;;;;;;4912511;28;20211;-67
2023/11/06 01:43:28;;;;;;;6.87;1.20;;;9.60;99.90;;;;;;4910853;28;20188;-67
2023/11/06 01:45:54;;;;;;;8.73;1.27;;;9.70;99.90;;;;;;4911754;28;20966;-67
2023/11/06 01:48:20;;;;;;;5.07;1.20;;;9.60;99.90;;;;;;4912183;28;20191;-67
2023/11/06 01:50:47;;;;;;;3.30;1.07;;;9.60;99.90;;;;;;4912232;28;20230;-65
2023/11/06 01:53:16;;;;;;;5.60;1.27;;;9.50;99.90;;;;;;4911905;28;20184;-67
2023/11/06 01:55:42;;;;;;;3.80;1.30;;;9.50;99.90;;;;;;4911602;28;20198;-65
2023/11/06 01:58:11;;;;;;;6.87;1.07;;;9.50;99.90;;;;;;4912231;28;20204;-66
2023/11/06 02:00:43;;;;;;;5.03;0.93;;;9.40;99.90;;;;;;4912131;28;20207;-67
2023/11/06 02:03:08;;;;;;;7.40;1.27;;;9.50;99.90;;;;;;4911903;28;20199;-67
2023/11/06 02:05:38;;;;;;;7.70;1.20;;;9.40;99.90;;;;;;4911557;28;20212;-65
2023/11/06 02:08:05;;;;;;;3.93;1.20;;;9.50;99.90;;;;;;4912110;28;20210;-67
2023/11/06 02:10:31;;;;;;;8.30;1.20;;;9.50;99.90;;;;;;4912057;28;20200;-66
2023/11/06 02:12:58;;;;;;;5.33;1.10;;;9.40;99.90;;;;;;4911814;28;20923;-67
2023/11/06 02:15:27;;;;;;;2.27;1.00;;;9.50;99.90;;;;;;4911323;28;20195;-67
2023/11/06 02:17:55;;;;;;;5.70;1.10;;;9.40;99.90;;;;;;4911895;28;20576;-66
2023/11/06 02:20:21;;;;;;;7.00;1.10;;;9.40;99.90;;;;;;4911248;28;20765;-66
2023/11/06 02:22:49;;;;;;;7.13;1.40;;;9.40;99.90;;;;;;4911814;28;20187;-66
2023/11/06 02:25:15;;;;;;;9.10;1.00;;;9.40;99.90;;;;;;4911147;28;20933;-66
2023/11/06 02:27:41;;;;;;;7.00;1.00;;;9.40;99.90;;;;;;4896804;28;20219;-66
2023/11/06 02:30:08;;;;;;;10.47;1.97;;;9.40;99.90;;;;;;4909957;28;20222;-67
2023/11/06 02:32:34;;;;;;;5.83;1.03;;;9.40;99.90;;;;;;4911812;28;20564;-66
2023/11/06 02:35:00;;;;;;;5.40;1.13;;;9.50;99.90;;;;;;4910869;28;20204;-66
2023/11/06 02:37:25;;;;;;;12.23;1.63;;;9.60;99.90;;;;;;4911788;28;20234;-65
2023/11/06 02:39:51;;;;;;;5.00;1.00;;;9.60;99.90;;;;;;4911561;28;20218;-66
2023/11/06 02:42:17;;;;;;;7.13;1.10;;;9.70;99.90;;;;;;4908680;28;20196;-66
2023/11/06 02:44:43;;;;;;;6.40;1.43;;;9.70;99.90;;;;;;4905798;28;20664;-66
2023/11/06 02:47:09;;;;;;;9.20;1.20;;;9.70;99.90;;;;;;4911326;28;20226;-67
2023/11/06 02:49:35;;;;;;;6.97;1.50;;;9.80;99.90;;;;;;4911418;28;20215;-66
2023/11/06 02:52:01;;;;;;;5.00;1.27;;;9.80;99.90;;;;;;4911400;28;20192;-67
2023/11/06 02:54:26;;;;;;;7.77;1.40;;;9.70;99.90;;;;;;4910759;28;20250;-65
2023/11/06 02:56:52;;;;;;;4.57;1.20;;;9.80;99.90;;;;;;4911337;28;20203;-65
2023/11/06 02:59:18;;;;;;;4.43;0.90;;;9.90;99.90;;;;;;4911282;28;20294;-65
2023/11/06 03:01:44;;;;;;;3.33;1.00;;;9.80;99.90;;;;;;4911302;28;20202;-66
2023/11/06 03:04:13;;;;;;;6.10;1.10;;;9.80;99.90;;;;;;4910446;28;20558;-65
2023/11/06 03:06:40;;;;;;;7.90;0.83;;;9.80;99.90;;;;;;4911286;28;20223;-67
2023/11/06 03:09:06;;;;;;;4.77;0.93;;;9.90;99.90;;;;;;4910969;28;20768;-66
2023/11/06 03:11:32;;;;;;;5.80;1.43;;;9.90;99.90;;;;;;4911159;28;20222;-66
2023/11/06 03:13:57;;;;;;;4.53;1.10;;;9.90;99.90;;;;;;4910495;28;20212;-66
2023/11/06 03:16:23;;;;;;;3.17;0.83;;;9.90;99.90;;;;;;4909956;28;20184;-65
2023/11/06 03:18:49;;;;;;;3.53;0.80;;;9.90;99.90;;;;;;4911140;28;20614;-65
2023/11/06 03:21:14;;;;;;;5.50;0.80;;;9.80;99.90;;;;;;4909557;28;20220;-64
2023/11/06 03:23:40;;;;;;;5.33;0.90;;;9.70;99.90;;;;;;4909268;28;20290;-65
2023/11/06 03:26:06;;;;;;;8.17;1.10;;;9.70;99.90;;;;;;4910790;28;20219;-64
2023/11/06 03:28:32;;;;;;;6.77;0.93;;;9.70;99.90;;;;;;4911158;28;20188;-64
2023/11/06 03:30:58;;;;;;;11.30;1.10;;;9.60;99.90;;;;;;4911690;28;20212;-64
2023/11/06 03:33:24;;;;;;;8.20;1.10;;;9.40;99.90;;;;;;4914017;28;20188;-65
2023/11/06 03:35:50;;;;;;;4.97;0.90;;;9.40;99.90;;;;;;4913681;28;20191;-65
2023/11/06 03:38:16;;;;;;;5.30;1.27;;;9.40;99.90;;;;;;4914293;28;20653;-64
2023/11/06 03:40:42;;;;;;;11.33;1.40;;;9.30;99.90;;;;;;4914084;28;20738;-65
2023/11/06 03:43:08;;;;;;;8.97;1.00;;;9.30;99.90;;;;;;4914032;28;20203;-62
2023/11/06 03:45:33;;;;;;;6.80;0.80;;;9.20;99.90;;;;;;4913538;28;20674;-65
2023/11/06 03:47:59;;;;;;;8.10;1.20;;;9.30;99.90;;;;;;4913613;28;20199;-65
2023/11/06 03:50:25;;;;;;;7.50;1.03;;;9.20;99.90;;;;;;4911601;28;20230;-65
2023/11/06 03:52:50;;;;;;;5.63;0.83;;;9.20;99.90;;;;;;4912760;28;20301;-65
2023/11/06 03:55:16;;;;;;;7.73;0.80;;;9.20;99.90;;;;;;4912065;28;20196;-66
2023/11/06 03:57:42;;;;;;;5.10;0.90;;;9.20;99.90;;;;;;4912769;28;20180;-65
2023/11/06 04:00:10;;;;;;;2.27;0.60;;;9.20;99.90;;;;;;4912568;28;20693;-64
2023/11/06 04:02:36;;;;;;;10.60;1.20;;;9.10;99.90;;;;;;4912843;28;20651;-65
2023/11/06 04:05:03;;;;;;;4.93;0.67;;;9.20;99.90;;;;;;4912134;28;20187;-65
2023/11/06 04:07:28;;;;;;;2.80;0.80;;;9.10;99.90;;;;;;4912856;28;20192;-65
2023/11/06 04:09:56;;;;;;;4.77;1.23;;;9.10;99.90;;;;;;4912525;28;20267;-65
2023/11/06 04:12:22;;;;;;;4.70;1.13;;;9.20;99.90;;;;;;4912553;28;20191;-66
2023/11/06 04:14:48;;;;;;;4.40;0.90;;;9.10;99.90;;;;;;4910552;28;20192;-65
2023/11/06 04:17:14;;;;;;;8.23;1.17;;;9.10;99.90;;;;;;4895499;28;20869;-65
2023/11/06 04:19:40;;;;;;;7.17;0.90;;;9.10;99.90;;;;;;4912430;28;20219;-65
2023/11/06 04:22:05;;;;;;;4.97;0.90;;;9.00;99.90;;;;;;4912438;28;20227;-65
2023/11/06 04:24:31;;;;;;;2.30;0.83;;;9.00;99.90;;;;;;4911796;28;20219;-66
2023/11/06 04:26:56;;;;;;;2.27;0.60;;;9.10;99.90;;;;;;4912340;28;20227;-64
2023/11/06 04:29:22;;;;;;;9.70;1.00;;;9.00;99.90;;;;;;4904508;28;20246;-65
2023/11/06 04:31:47;;;;;;;4.07;0.60;;;9.10;99.90;;;;;;4912318;28;20191;-66
2023/11/06 04:34:13;;;;;;;5.47;1.10;;;9.10;99.90;;;;;;4911630;28;20234;-65
2023/11/06 04:36:38;;;;;;;5.67;0.90;;;9.10;99.90;;;;;;4912357;28;20204;-66
2023/11/06 04:39:05;;;;;;;2.87;0.60;;;9.10;99.90;;;;;;4912122;28;20229;-65
2023/11/06 04:41:31;;;;;;;3.60;0.80;;;9.10;99.90;;;;;;4912179;28;20188;-66
2023/11/06 04:43:56;;;;;;;5.00;1.00;;;9.10;99.90;;;;;;4911498;28;20187;-66
2023/11/06 04:46:23;;;;;;;3.00;0.87;;;9.10;99.90;;;;;;4912185;28;20207;-66
2023/11/06 04:48:48;;;;;;;6.37;0.90;;;9.10;99.90;;;;;;4873534;28;1146735;-65
2023/11/06 04:51:16;;;;;;;6.90;1.20;;;9.10;99.90;;;;;;4913013;28;20248;-66
2023/11/06 04:53:41;;;;;;;6.33;0.80;;;9.10;99.90;;;;;;4912283;28;20581;-65
2023/11/06 04:56:07;;;;;;;5.77;0.80;;;9.00;99.90;;;;;;4912798;28;20196;-65
2023/11/06 04:58:33;;;;;;;4.47;1.10;;;9.00;99.90;;;;;;4912911;28;20179;-66
2023/11/06 05:00:59;;;;;;;4.77;0.80;;;9.00;99.90;;;;;;4912896;28;20306;-66
2023/11/06 05:03:24;;;;;;;2.80;0.83;;;8.90;99.90;;;;;;4912685;28;20685;-66
2023/11/06 05:05:50;;;;;;;2.27;0.80;;;9.00;99.90;;;;;;4896437;28;20220;-66
2023/11/06 05:08:15;;;;;;;6.90;0.90;;;8.90;99.90;;;;;;4911955;28;20636;-65
2023/11/06 05:10:41;;;;;;;2.37;0.80;;;8.90;99.90;;;;;;4912723;28;20211;-66
2023/11/06 05:13:07;;;;;;;5.73;1.03;;;9.00;99.90;;;;;;4912600;28;20188;-64
2023/11/06 05:15:32;;;;;;;6.13;0.90;;;8.90;99.90;;;;;;4912078;28;20184;-66
2023/11/06 05:17:58;;;;;;;5.90;0.90;;;8.90;99.90;;;;;;4912626;28;20227;-66
2023/11/06 05:20:24;;;;;;;5.37;1.30;;;8.90;99.90;;;;;;4912640;28;20270;-65
2023/11/06 05:22:50;;;;;;;5.10;1.17;;;8.90;99.90;;;;;;4912679;28;20211;-66
2023/11/06 05:25:16;;;;;;;4.20;0.90;;;8.90;99.90;;;;;;4911762;28;20661;-65
2023/11/06 05:27:41;;;;;;;6.40;1.30;;;8.90;99.90;;;;;;4912558;28;20275;-65
2023/11/06 05:30:09;;;;;;;2.77;0.90;;;9.00;99.90;;;;;;4912484;28;20651;-66
2023/11/06 05:32:35;;;;;;;6.53;1.00;;;9.10;99.90;;;;;;4912493;28;20176;-65
2023/11/06 05:35:00;;;;;;;5.67;1.00;;;9.10;99.90;;;;;;4911802;28;20219;-66
2023/11/06 05:37:27;;;;;;;8.37;1.13;;;9.10;99.90;;;;;;4912452;28;20208;-66
2023/11/06 05:39:53;;;;;;;8.40;1.20;;;9.10;99.90;;;;;;4912368;28;20630;-66
2023/11/06 05:42:19;;;;;;;4.80;1.03;;;9.20;99.90;;;;;;4912189;28;20680;-65
2023/11/06 05:44:44;;;;;;;2.13;0.87;;;9.20;99.90;;;;;;4911672;28;20192;-65
2023/11/06 05:47:10;;;;;;;4.97;0.90;;;9.20;99.90;;;;;;4912135;28;20701;-65
2023/11/06 05:49:42;;;;;;;8.33;1.13;;;9.20;99.90;;;;;;4910954;28;20231;-64
2023/11/06 05:52:08;;;;;;;6.60;1.20;;;9.20;99.90;;;;;;4895450;28;20797;-65
2023/11/06 05:54:34;;;;;;;6.23;1.33;;;9.10;99.90;;;;;;4910887;28;20196;-66
2023/11/06 05:57:00;;;;;;;9.33;1.13;;;9.20;99.90;;;;;;4912106;28;20192;-66
2023/11/06 05:59:25;;;;;;;10.23;1.13;;;9.20;99.90;;;;;;4912066;28;20211;-66
2023/11/06 06:01:51;;;;;;;6.17;1.07;;;9.20;99.90;;;;;;4911142;28;20199;-66
2023/11/06 06:04:16;;;;;;;11.37;1.37;;;9.20;99.90;;;;;;4910225;28;20187;-66
2023/11/06 06:06:42;;;;;;;9.43;1.00;;;9.20;99.90;;;;;;4911917;28;20216;-66
2023/11/06 06:09:08;;;;;;;6.07;1.63;;;9.20;99.90;;;;;;4911636;28;20275;-65
2023/11/06 06:11:37;;;;;;;9.57;1.30;;;9.20;99.90;;;;;;4911889;28;20199;-66
2023/11/06 06:14:04;;;;;;;5.97;1.20;;;9.00;99.90;;;;;;4911209;28;20645;-65
2023/11/06 06:16:30;;;;;;;10.63;1.87;;;9.00;99.90;;;;;;4911802;28;20180;-65
2023/11/06 06:18:56;;;;;;;5.13;1.23;;;8.90;99.90;;;;;;4911825;28;20258;-66
2023/11/06 06:21:21;;;;;;;12.57;1.67;;;8.90;99.90;;;;;;4908307;28;20200;-65
2023/11/06 06:23:47;;;;;;;8.40;1.23;;;8.90;99.90;;;;;;4934260;28;20196;-65
2023/11/06 06:26:12;;;;;;;11.53;1.50;;;8.90;99.90;;;;;;4901451;28;20725;-64
2023/11/06 06:28:38;;;;;;;9.80;1.37;;;8.90;99.90;;;;;;4938726;28;20192;-65
2023/11/06 06:31:03;;;;;;;9.27;1.23;;;8.80;99.90;;;;;;4924053;28;20216;-66
2023/11/06 06:33:29;;;;;;;10.40;1.23;;;8.80;99.90;;;;;;4920202;28;20196;-66
2023/11/06 06:35:55;;;;;;;6.50;1.27;;;8.90;99.90;;;;;;4904448;28;20593;-66
2023/11/06 06:38:21;;;;;;;11.57;1.40;;;8.90;99.90;;;;;;4905284;28;20274;-66
2023/11/06 06:40:50;;;;;;;7.87;1.60;;;8.80;99.90;;;;;;4930707;28;20216;-66
2023/11/06 06:43:16;;;;;;;10.17;1.60;;;8.90;99.90;;;;;;4908572;28;20878;-65
2023/11/06 06:45:42;;;;;;;8.27;1.50;;;8.80;99.90;;;;;;4904933;28;20208;-66
2023/11/06 06:48:08;;;;;;;10.13;1.40;;;8.80;99.90;;;;;;4906367;28;20565;-66
2023/11/06 06:50:33;;;;;;;7.50;1.60;;;8.80;99.90;;;;;;4910579;28;20227;-67
2023/11/06 06:52:59;;;;;;;7.50;1.20;;;8.80;99.90;;;;;;4910509;28;20187;-65
2023/11/06 06:55:25;;;;;;;10.90;1.63;;;8.80;99.90;;;;;;4909854;28;20184;-67
2023/11/06 06:57:51;;;;;;;10.07;1.83;;;8.80;99.90;;;;;;4910754;28;20184;-66
2023/11/06 07:00:17;;;;;;;11.47;1.67;;;8.80;99.90;;;;;;4911067;28;20199;-66
2023/11/06 07:02:42;;;;;;;7.43;1.77;;;8.80;99.90;;;;;;4910767;28;20267;-65
2023/11/06 07:05:09;;;;;;;8.70;1.50;;;8.80;99.90;;;;;;4909651;28;20291;-65
2023/11/06 07:07:35;;;;;;;17.13;1.93;;;8.70;99.90;;;;;;4919721;28;20188;-65
2023/11/06 07:10:00;;;;;;;12.53;2.03;;;8.70;99.90;;;;;;4915995;28;20212;-64
2023/11/06 07:12:26;;;;;;;8.53;1.20;;;8.80;99.90;;;;;;4961340;28;20942;-65
2023/11/06 07:14:51;;;;;;;6.07;1.07;;;8.80;99.90;;;;;;4937863;28;20203;-66
2023/11/06 07:17:17;;;;;;;9.83;1.60;;;8.80;99.90;;;;;;4935332;28;20200;-66
2023/11/06 07:19:43;;;;;;;9.13;1.90;;;8.80;99.90;;;;;;4944458;28;20224;-66
2023/11/06 07:22:09;;;;;;;7.47;1.50;;;8.80;99.90;;;;;;4956294;28;20195;-66
2023/11/06 07:24:35;;;;;;;8.40;1.50;;;8.80;99.90;;;;;;4950389;28;20180;-67
2023/11/06 07:27:00;;;;;;;10.53;1.63;;;8.80;99.90;;;;;;4959939;28;20242;-66
2023/11/06 07:29:26;;;;;;;12.23;1.63;;;8.90;99.90;;;;;;4952018;28;20203;-67
2023/11/06 07:31:52;;;;;;;10.60;1.40;;;9.00;99.90;;;;;;4958419;28;20660;-67
2023/11/06 07:34:21;;;;;;;12.10;1.70;;;9.00;99.90;;;;;;4929125;28;20184;-66
2023/11/06 07:36:48;;;;;;;8.80;1.23;;;9.00;99.90;;;;;;4913418;28;20191;-66
2023/11/06 07:39:15;;;;;;;7.80;1.63;;;9.00;99.90;;;;;;4913082;28;20212;-64
2023/11/06 07:41:41;;;;;;;10.30;1.20;;;8.90;99.90;;;;;;4913619;28;20188;-65
2023/11/06 07:44:08;;;;;;;5.70;1.60;;;9.00;99.90;;;;;;4912669;28;20310;-64
2023/11/06 07:46:33;;;;;;;8.00;1.33;;;9.00;99.90;;;;;;4913257;28;20212;-66
2023/11/06 07:48:59;;;;;;;12.33;1.70;;;9.00;99.90;;;;;;4913271;28;20203;-68
2023/11/06 07:51:25;;;;;;;6.30;1.37;;;9.00;99.90;;;;;;4913129;28;20191;-67
2023/11/06 07:53:51;;;;;;;10.60;1.47;;;9.10;99.90;;;;;;4912537;28;20212;-67
2023/11/06 07:56:18;;;;;;;13.77;1.30;;;9.10;99.90;;;;;;4912580;28;20234;-66
2023/11/06 07:58:44;;;;;;;6.53;1.30;;;9.20;99.90;;;;;;4912455;28;20222;-67
2023/11/06 08:01:10;;;;;;;6.57;1.17;;;9.30;99.90;;;;;;4912901;28;20207;-67
2023/11/06 08:03:36;;;;;;;10.00;1.20;;;9.30;99.90;;;;;;4904659;28;20696;-66
2023/11/06 08:06:02;;;;;;;8.40;1.60;;;9.30;99.90;;;;;;4912571;28;20536;-67
2023/11/06 08:08:28;;;;;;;11.20;1.43;;;9.40;99.90;;;;;;4912932;28;20188;-66
2023/11/06 08:10:53;;;;;;;14.63;1.50;;;9.60;99.90;;;;;;4912819;28;20222;-67
2023/11/06 08:13:19;;;;;;;8.47;1.50;;;10.10;99.90;;;;;;4906662;28;20244;-68
2023/11/06 08:15:44;;;;;;;8.27;1.37;;;11.00;99.90;;;;;;4911764;28;20511;-67
2023/11/06 08:18:10;;;;;;;7.03;1.40;;;11.70;99.90;;;;;;4911695;28;20581;-65
2023/11/06 08:20:36;;;;;;;8.17;1.37;;;12.10;99.90;;;;;;4912659;28;20917;-65
2023/11/06 08:23:02;;;;;;;6.20;0.90;;;12.60;99.90;;;;;;4911418;28;20190;-66
2023/11/06 08:25:28;;;;;;;22.10;3.83;;;13.00;99.90;;;;;;4912054;28;20188;-68
2023/11/06 08:27:54;;;;;;;5.23;1.10;;;13.20;99.90;;;;;;4912912;28;20222;-66
2023/11/06 08:30:20;;;;;;;14.87;1.27;;;13.40;99.90;;;;;;4912482;28;20219;-67
2023/11/06 08:32:45;;;;;;;9.47;1.40;;;13.70;99.90;;;;;;4904921;28;20207;-66
2023/11/06 08:35:11;;;;;;;9.00;1.80;;;14.00;99.90;;;;;;4911531;28;20188;-67
2023/11/06 08:37:36;;;;;;;8.83;1.53;;;14.30;99.90;;;;;;4912436;28;20684;-66
2023/11/06 08:40:03;;;;;;;9.80;1.40;;;14.10;99.90;;;;;;4913751;28;20215;-66
2023/11/06 08:42:29;;;;;;;4.37;1.00;;;14.00;99.90;;;;;;4943059;28;20172;-66
2023/11/06 08:44:54;;;;;;;10.00;1.57;;;13.90;99.90;;;;;;4912027;28;20191;-66
2023/11/06 08:47:20;;;;;;;9.43;1.60;;;13.70;99.90;;;;;;4912353;28;20258;-66
2023/11/06 08:49:46;;;;;;;10.33;1.63;;;13.80;99.90;;;;;;4912045;28;20277;-66
2023/11/06 08:52:12;;;;;;;16.83;1.97;;;13.50;99.90;;;;;;4904511;28;20184;-67
2023/11/06 08:54:39;;;;;;;9.77;1.67;;;13.40;99.90;;;;;;4911471;28;20176;-66
2023/11/06 08:57:05;;;;;;;6.97;1.53;;;13.10;99.90;;;;;;4912253;28;20191;-67
2023/11/06 08:59:30;;;;;;;9.13;1.10;;;13.00;99.90;;;;;;4912024;28;20208;-66
2023/11/06 09:01:56;;;;;;;9.87;1.20;;;12.90;99.90;;;;;;4945408;28;20196;-66
2023/11/06 09:04:22;;;;;;;8.63;1.10;;;12.90;99.90;;;;;;4911355;28;20258;-66
2023/11/06 09:06:47;;;;;;;8.40;1.40;;;12.90;99.90;;;;;;4912181;28;20243;-66
2023/11/06 09:09:13;;;;;;;9.23;1.50;;;12.90;99.90;;;;;;4904067;28;20247;-67
2023/11/06 09:11:40;;;;;;;8.70;1.23;;;13.00;99.90;;;;;;4912087;28;20184;-66
2023/11/06 09:14:08;;;;;;;8.13;1.40;;;13.10;99.90;;;;;;4911787;28;20188;-67
2023/11/06 09:16:34;;;;;;;14.50;2.10;;;13.20;99.90;;;;;;4912187;28;20191;-66
2023/11/06 09:19:00;;;;;;;9.60;1.10;;;13.10;99.90;;;;;;4912229;28;20217;-66
2023/11/06 09:21:26;;;;;;;12.17;1.30;;;13.30;99.90;;;;;;4912242;28;20188;-67
2023/11/06 09:23:52;;;;;;;7.97;0.97;;;13.50;99.90;;;;;;4911243;28;20271;-66
2023/11/06 09:26:19;;;;;;;7.33;1.00;;;13.40;99.90;;;;;;4911591;28;20212;-66
2023/11/06 09:28:45;;;;;;;6.20;1.20;;;13.50;99.90;;;;;;4910998;28;20184;-67
2023/11/06 09:31:11;;;;;;;4.87;1.03;;;13.30;99.90;;;;;;4911920;28;20203;-67
2023/11/06 09:33:38;;;;;;;7.60;1.50;;;13.00;99.90;;;;;;4905074;28;20556;-66
2023/11/06 09:36:07;;;;;;;8.87;1.27;;;13.00;99.90;;;;;;4908786;28;20275;-68
2023/11/06 09:38:33;;;;;;;11.80;1.10;;;13.00;99.90;;;;;;4911832;28;20184;-68
2023/11/06 09:40:59;;;;;;;10.37;1.00;;;12.90;99.90;;;;;;4912052;28;20261;-67
2023/11/06 09:43:24;;;;;;;7.50;0.97;;;12.80;99.90;;;;;;4903717;28;20724;-68
2023/11/06 09:45:52;;;;;;;5.43;1.40;;;12.90;99.90;;;;;;4903432;28;20743;-68
2023/11/06 09:48:18;;;;;;;6.73;1.00;;;12.90;99.90;;;;;;4909946;28;20263;-68
2023/11/06 09:50:48;;;;;;;4.93;1.40;;;12.80;99.90;;;;;;4911677;28;20604;-67
2023/11/06 09:53:15;;;;;;;7.67;1.43;;;12.60;99.90;;;;;;4918564;28;20195;-67
2023/11/06 09:55:41;;;;;;;8.23;1.33;;;12.40;99.90;;;;;;4957482;28;20198;-67
2023/11/06 09:58:08;;;;;;;7.90;1.43;;;12.60;99.90;;;;;;4921757;28;20196;-67
2023/11/06 10:00:33;;;;;;;7.90;1.23;;;13.00;99.90;;;;;;4911354;28;20212;-67
2023/11/06 10:02:59;;;;;;;6.07;1.20;;;13.40;99.90;;;;;;4911432;28;20187;-67
2023/11/06 10:05:27;;;;;;;14.13;1.70;;;13.30;99.90;;;;;;4910489;28;20183;-66
2023/11/06 10:07:54;;;;;;;7.33;1.10;;;12.90;99.90;;;;;;4911255;28;20188;-67
2023/11/06 10:10:22;;;;;;;7.77;1.10;;;12.40;99.90;;;;;;4911106;28;20200;-67
2023/11/06 10:13:08;;;;;;;6.87;1.00;;;12.60;99.90;;;;;;4911514;28;20180;-67
2023/11/06 10:15:35;;;;;;;8.90;1.57;;;12.40;99.90;;;;;;4903380;28;20546;-67
2023/11/06 10:18:15;;;;;;;9.20;1.23;;;12.40;99.90;;;;;;4909602;28;20195;-67
2023/11/06 10:20:44;;;;;;;13.73;1.10;;;12.20;99.90;;;;;;4911201;28;20211;-67
2023/11/06 10:23:10;;;;;;;6.90;1.40;;;12.10;99.90;;;;;;4910654;28;20191;-67
2023/11/06 10:25:36;;;;;;;10.50;1.60;;;12.00;99.90;;;;;;4910297;28;20219;-66
2023/11/06 10:28:17;;;;;;;14.23;1.30;;;12.10;99.90;;;;;;4910992;28;20649;-67
2023/11/06 10:30:51;;;;;;;8.73;1.43;;;12.50;99.90;;;;;;4906900;28;20208;-66
2023/11/06 10:33:18;;;;;;;8.40;1.80;;;12.70;99.90;;;;;;4951018;28;20197;-67
2023/11/06 10:35:44;;;;;;;8.77;1.20;;;13.00;99.90;;;;;;4910525;28;20612;-67
2023/11/06 10:38:29;;;;;;;6.20;1.00;;;13.10;99.90;;;;;;4910677;28;20236;-67
2023/11/06 10:40:59;;;;;;;7.07;1.30;;;13.00;99.90;;;;;;4910623;28;20238;-67
2023/11/06 10:43:25;;;;;;;9.90;1.23;;;12.90;99.90;;;;;;4910535;28;20180;-66
2023/11/06 10:45:52;;;;;;;5.00;1.23;;;12.70;99.90;;;;;;4910339;28;20266;-67
2023/11/06 10:48:45;;;;;;;9.63;1.40;;;12.50;99.90;;;;;;4910495;28;20188;-67
2023/11/06 10:51:13;;;;;;;7.53;1.10;;;12.50;99.90;;;;;;4903195;28;20650;-67
2023/11/06 10:53:40;;;;;;;9.87;1.20;;;12.30;99.90;;;;;;4910408;28;20537;-67
2023/11/06 10:56:08;;;;;;;8.07;1.20;;;12.10;99.90;;;;;;4910295;28;20234;-67
2023/11/06 10:58:36;;;;;;;14.30;1.60;;;12.00;99.90;;;;;;4910853;28;20443;-66
2023/11/06 11:01:04;;;;;;;9.73;1.27;;;11.90;99.90;;;;;;4910568;28;20211;-67
2023/11/06 11:03:31;;;;;;;4.97;1.03;;;11.80;99.90;;;;;;4909105;28;20192;-67
2023/11/06 11:05:58;;;;;;;9.90;1.43;;;11.80;99.90;;;;;;4909476;28;20310;-67
2023/11/06 11:08:25;;;;;;;10.60;1.43;;;11.90;99.90;;;;;;4910692;28;20188;-67
2023/11/06 11:10:56;;;;;;;6.47;1.17;;;12.10;99.90;;;;;;4910413;28;20207;-68
2023/11/06 11:13:22;;;;;;;11.73;3.07;;;12.50;99.90;;;;;;4910176;28;20246;-67
2023/11/06 11:15:48;;;;;;;11.37;1.40;;;13.10;99.90;;;;;;4909818;28;20192;-67
2023/11/06 11:18:14;;;;;;;10.43;1.60;;;13.40;99.90;;;;;;4910322;28;20199;-67
2023/11/06 11:20:57;;;;;;;8.13;0.90;;;13.80;99.90;;;;;;4910200;28;20216;-67
2023/11/06 11:23:38;;;;;;;6.40;1.20;;;13.90;99.90;;;;;;4910044;28;20184;-68
2023/11/06 11:26:06;;;;;;;15.10;1.40;;;14.10;99.90;;;;;;4909773;28;20673;-67
2023/11/06 11:28:51;;;;;;;7.20;1.00;;;14.30;99.90;;;;;;4910254;28;20183;-67
2023/11/06 11:31:47;;;;;;;14.13;1.83;;;14.70;99.90;;;;;;4908211;28;20208;-67
2023/11/06 11:34:33;;;;;;;10.77;1.43;;;15.00;99.90;;;;;;4907701;28;20184;-66
2023/11/06 11:36:59;;;;;;;8.07;1.40;;;14.80;99.90;;;;;;4910115;28;20195;-67
2023/11/06 11:39:28;;;;;;;5.50;0.87;;;14.70;99.90;;;;;;4910159;28;20204;-68
2023/11/06 11:42:00;;;;;;;7.80;1.33;;;14.40;99.90;;;;;;4910220;28;20184;-66
2023/11/06 11:44:26;;;;;;;4.70;1.20;;;14.30;99.90;;;;;;4909740;28;20184;-68
2023/11/06 11:46:54;;;;;;;12.87;1.53;;;14.30;99.90;;;;;;4910013;28;20700;-68
2023/11/06 11:49:45;;;;;;;8.77;1.40;;;14.70;99.90;;;;;;4909774;28;20639;-67
2023/11/06 11:52:23;;;;;;;7.07;1.20;;;14.70;99.90;;;;;;4910977;28;20271;-68
2023/11/06 11:54:49;;;;;;;10.63;1.30;;;15.00;99.90;;;;;;4912593;28;20183;-67
2023/11/06 11:57:15;;;;;;;8.27;1.37;;;15.10;99.90;;;;;;4912921;28;20196;-67
2023/11/06 11:59:50;;;;;;;12.07;1.17;;;14.80;99.90;;;;;;4907847;28;20218;-67
2023/11/06 12:02:26;;;;;;;7.50;1.10;;;14.90;99.90;;;;;;4911941;28;20280;-67
2023/11/06 12:04:57;;;;;;;7.93;1.03;;;14.70;99.90;;;;;;4912384;28;20207;-67
2023/11/06 12:07:24;;;;;;;11.53;1.47;;;14.60;99.90;;;;;;4912930;28;20595;-67
2023/11/06 12:09:51;;;;;;;12.97;1.20;;;14.30;99.90;;;;;;4912745;28;20214;-67
2023/11/06 12:12:24;;;;;;;4.93;0.80;;;13.90;99.90;;;;;;4912843;28;20196;-67
2023/11/06 12:14:51;;;;;;;7.57;1.10;;;13.70;99.90;;;;;;4912437;28;20188;-68
2023/11/06 12:17:30;;;;;;;10.00;1.23;;;13.80;99.90;;;;;;4912727;28;20655;-67
2023/11/06 12:19:59;;;;;;;12.87;1.40;;;14.00;99.90;;;;;;4912759;28;20234;-68
2023/11/06 12:22:30;;;;;;;11.27;1.77;;;14.30;99.90;;;;;;4912631;28;20184;-68
2023/11/06 12:24:57;;;;;;;15.13;1.47;;;14.70;99.90;;;;;;4912030;28;20187;-68
2023/11/06 12:27:33;;;;;;;6.77;1.43;;;14.90;99.90;;;;;;4923621;28;20209;-68
2023/11/06 12:30:04;;;;;;;7.43;1.00;;;15.00;99.90;;;;;;4928455;28;20257;-68
2023/11/06 12:32:31;;;;;;;6.53;1.00;;;15.30;99.90;;;;;;4905077;28;20184;-69
2023/11/06 12:35:03;;;;;;;9.67;1.10;;;15.80;99.90;;;;;;4912118;28;20180;-68
2023/11/06 12:37:28;;;;;;;9.23;1.30;;;16.00;99.90;;;;;;4909602;28;20180;-68
2023/11/06 12:39:55;;;;;;;8.50;1.30;;;15.80;99.90;;;;;;4908184;28;20264;-68
2023/11/06 12:42:21;;;;;;;9.30;1.20;;;15.40;99.90;;;;;;4912512;28;20567;-68
2023/11/06 12:44:46;;;;;;;8.10;1.07;;;15.00;99.90;;;;;;4911909;28;20607;-68
2023/11/06 12:47:13;;;;;;;11.30;1.10;;;14.70;99.90;;;;;;4912400;28;20653;-68
2023/11/06 12:49:52;;;;;;;7.13;1.00;;;14.60;99.90;;;;;;4912332;28;20226;-69